sensor_id;sensor_type;location;lat;lon;timestamp;temperature;humidity
30520;DHT22;17300;50.374;8.006;2023-07-20T00:00:56;21.90;43.30
30520;DHT22;17300;50.374;8.006;2023-07-20T00:03:22;21.90;43.30
30520;DHT22;17300;50.374;8.006;2023-07-20T00:05:50;21.90;43.30
30520;DHT22;17300;50.374;8.006;2023-07-20T00:08:18;21.80;43.30
30520;DHT22;17300;50.374;8.006;2023-07-20T00:10:44;21.80;43.40
30520;DHT22;17300;50.374;8.006;2023-07-20T00:13:11;21.80;43.40
30520;DHT22;17300;50.374;8.006;2023-07-20T00:15:39;21.80;43.40
30520;DHT22;17300;50.374;8.006;2023-07-20T00:18:06;21.70;43.60
30520;DHT22;17300;50.374;8.006;2023-07-20T00:20:33;21.70;43.80
30520;DHT22;17300;50.374;8.006;2023-07-20T00:22:59;21.70;44.00
30520;DHT22;17300;50.374;8.006;2023-07-20T00:25:26;21.70;43.90
30520;DHT22;17300;50.374;8.006;2023-07-20T00:27:53;21.60;43.90
30520;DHT22;17300;50.374;8.006;2023-07-20T00:30:20;21.60;44.30
30520;DHT22;17300;50.374;8.006;2023-07-20T00:32:48;21.50;44.20
30520;DHT22;17300;50.374;8.006;2023-07-20T00:35:14;21.50;44.20
30520;DHT22;17300;50.374;8.006;2023-07-20T00:37:41;21.50;44.30
30520;DHT22;17300;50.374;8.006;2023-07-20T00:40:08;21.40;44.30
30520;DHT22;17300;50.374;8.006;2023-07-20T00:42:34;21.40;44.30
30520;DHT22;17300;50.374;8.006;2023-07-20T00:45:01;21.30;44.40
30520;DHT22;17300;50.374;8.006;2023-07-20T00:47:28;21.30;44.60
30520;DHT22;17300;50.374;8.006;2023-07-20T00:49:56;21.20;44.70
30520;DHT22;17300;50.374;8.006;2023-07-20T00:52:23;21.20;45.00
30520;DHT22;17300;50.374;8.006;2023-07-20T00:54:52;21.10;44.90
30520;DHT22;17300;50.374;8.006;2023-07-20T00:57:22;21.10;44.90
30520;DHT22;17300;50.374;8.006;2023-07-20T00:59:50;21.10;45.00
30520;DHT22;17300;50.374;8.006;2023-07-20T01:02:16;21.00;44.90
30520;DHT22;17300;50.374;8.006;2023-07-20T01:04:43;21.00;45.00
30520;DHT22;17300;50.374;8.006;2023-07-20T01:07:14;20.90;45.00
30520;DHT22;17300;50.374;8.006;2023-07-20T01:09:46;20.90;45.20
30520;DHT22;17300;50.374;8.006;2023-07-20T01:12:21;20.80;45.10
30520;DHT22;17300;50.374;8.006;2023-07-20T01:14:49;20.80;45.40
30520;DHT22;17300;50.374;8.006;2023-07-20T01:17:16;20.80;45.20
30520;DHT22;17300;50.374;8.006;2023-07-20T01:19:43;20.70;45.10
30520;DHT22;17300;50.374;8.006;2023-07-20T01:22:25;20.70;45.30
30520;DHT22;17300;50.374;8.006;2023-07-20T01:25:16;20.70;45.90
30520;DHT22;17300;50.374;8.006;2023-07-20T01:28:19;20.70;46.10
30520;DHT22;17300;50.374;8.006;2023-07-20T01:30:57;20.60;46.20
30520;DHT22;17300;50.374;8.006;2023-07-20T01:33:28;20.70;45.70
30520;DHT22;17300;50.374;8.006;2023-07-20T01:35:58;20.60;45.80
30520;DHT22;17300;50.374;8.006;2023-07-20T01:38:26;20.60;46.00
30520;DHT22;17300;50.374;8.006;2023-07-20T01:40:53;20.60;46.00
30520;DHT22;17300;50.374;8.006;2023-07-20T01:43:19;20.60;46.20
30520;DHT22;17300;50.374;8.006;2023-07-20T01:45:46;20.60;46.50
30520;DHT22;17300;50.374;8.006;2023-07-20T01:48:13;20.70;46.60
30520;DHT22;17300;50.374;8.006;2023-07-20T01:50:41;20.70;46.70
30520;DHT22;17300;50.374;8.006;2023-07-20T01:53:08;20.70;46.70
30520;DHT22;17300;50.374;8.006;2023-07-20T01:55:35;20.80;46.90
30520;DHT22;17300;50.374;8.006;2023-07-20T01:58:01;20.90;47.00
30520;DHT22;17300;50.374;8.006;2023-07-20T02:00:29;21.00;47.50
30520;DHT22;17300;50.374;8.006;2023-07-20T02:02:55;21.00;47.70
30520;DHT22;17300;50.374;8.006;2023-07-20T02:05:22;21.10;48.00
30520;DHT22;17300;50.374;8.006;2023-07-20T02:07:51;21.20;48.30
30520;DHT22;17300;50.374;8.006;2023-07-20T02:10:18;21.30;48.60
30520;DHT22;17300;50.374;8.006;2023-07-20T02:12:44;21.40;48.50
30520;DHT22;17300;50.374;8.006;2023-07-20T02:15:11;21.40;48.40
30520;DHT22;17300;50.374;8.006;2023-07-20T02:17:38;21.50;48.40
30520;DHT22;17300;50.374;8.006;2023-07-20T02:20:07;21.60;48.50
30520;DHT22;17300;50.374;8.006;2023-07-20T02:22:35;21.60;48.50
30520;DHT22;17300;50.374;8.006;2023-07-20T02:25:04;21.60;48.30
30520;DHT22;17300;50.374;8.006;2023-07-20T02:27:30;21.70;48.60
30520;DHT22;17300;50.374;8.006;2023-07-20T02:29:57;21.70;48.60
30520;DHT22;17300;50.374;8.006;2023-07-20T02:32:24;21.70;48.50
30520;DHT22;17300;50.374;8.006;2023-07-20T02:34:51;21.70;48.20
30520;DHT22;17300;50.374;8.006;2023-07-20T02:37:17;21.70;48.20
30520;DHT22;17300;50.374;8.006;2023-07-20T02:39:44;21.70;48.10
30520;DHT22;17300;50.374;8.006;2023-07-20T02:42:12;21.70;47.90
30520;DHT22;17300;50.374;8.006;2023-07-20T02:44:39;21.70;47.90
30520;DHT22;17300;50.374;8.006;2023-07-20T02:47:06;21.70;47.90
30520;DHT22;17300;50.374;8.006;2023-07-20T02:49:33;21.70;48.10
30520;DHT22;17300;50.374;8.006;2023-07-20T02:51:59;21.60;48.00
30520;DHT22;17300;50.374;8.006;2023-07-20T02:54:26;21.60;48.10
30520;DHT22;17300;50.374;8.006;2023-07-20T02:56:53;21.50;48.00
30520;DHT22;17300;50.374;8.006;2023-07-20T02:59:21;21.50;48.00
30520;DHT22;17300;50.374;8.006;2023-07-20T03:01:48;21.40;48.30
30520;DHT22;17300;50.374;8.006;2023-07-20T03:04:15;21.40;48.50
30520;DHT22;17300;50.374;8.006;2023-07-20T03:06:41;21.30;48.50
30520;DHT22;17300;50.374;8.006;2023-07-20T03:09:08;21.30;48.70
30520;DHT22;17300;50.374;8.006;2023-07-20T03:11:35;21.20;48.80
30520;DHT22;17300;50.374;8.006;2023-07-20T03:14:01;21.10;48.80
30520;DHT22;17300;50.374;8.006;2023-07-20T03:16:29;21.00;49.50
30520;DHT22;17300;50.374;8.006;2023-07-20T03:18:58;20.90;49.00
30520;DHT22;17300;50.374;8.006;2023-07-20T03:21:25;20.90;49.00
30520;DHT22;17300;50.374;8.006;2023-07-20T03:23:52;20.80;49.10
30520;DHT22;17300;50.374;8.006;2023-07-20T03:26:19;20.70;49.20
30520;DHT22;17300;50.374;8.006;2023-07-20T03:28:46;20.60;49.30
30520;DHT22;17300;50.374;8.006;2023-07-20T03:31:14;20.50;49.40
30520;DHT22;17300;50.374;8.006;2023-07-20T03:33:42;20.50;49.60
30520;DHT22;17300;50.374;8.006;2023-07-20T03:36:09;20.40;49.70
30520;DHT22;17300;50.374;8.006;2023-07-20T03:38:36;20.30;49.90
30520;DHT22;17300;50.374;8.006;2023-07-20T03:41:02;20.30;50.00
30520;DHT22;17300;50.374;8.006;2023-07-20T03:43:29;20.20;50.10
30520;DHT22;17300;50.374;8.006;2023-07-20T03:45:56;20.20;50.20
30520;DHT22;17300;50.374;8.006;2023-07-20T03:48:24;20.10;50.10
30520;DHT22;17300;50.374;8.006;2023-07-20T03:50:53;20.10;50.20
30520;DHT22;17300;50.374;8.006;2023-07-20T03:53:20;20.00;50.30
30520;DHT22;17300;50.374;8.006;2023-07-20T03:55:47;20.00;50.20
30520;DHT22;17300;50.374;8.006;2023-07-20T03:58:14;19.90;50.30
30520;DHT22;17300;50.374;8.006;2023-07-20T04:00:44;19.90;50.30
30520;DHT22;17300;50.374;8.006;2023-07-20T04:03:11;19.90;50.30
30520;DHT22;17300;50.374;8.006;2023-07-20T04:05:37;19.80;50.20
30520;DHT22;17300;50.374;8.006;2023-07-20T04:08:05;19.80;50.30
30520;DHT22;17300;50.374;8.006;2023-07-20T04:10:32;19.80;50.50
30520;DHT22;17300;50.374;8.006;2023-07-20T04:13:00;19.80;50.50
30520;DHT22;17300;50.374;8.006;2023-07-20T04:15:26;19.70;50.60
30520;DHT22;17300;50.374;8.006;2023-07-20T04:17:53;19.70;50.60
30520;DHT22;17300;50.374;8.006;2023-07-20T04:20:21;19.70;50.60
30520;DHT22;17300;50.374;8.006;2023-07-20T04:22:47;19.70;50.60
30520;DHT22;17300;50.374;8.006;2023-07-20T04:25:16;19.70;50.70
30520;DHT22;17300;50.374;8.006;2023-07-20T04:27:42;19.60;50.70
30520;DHT22;17300;50.374;8.006;2023-07-20T04:30:10;19.70;50.80
30520;DHT22;17300;50.374;8.006;2023-07-20T04:32:37;19.70;50.90
30520;DHT22;17300;50.374;8.006;2023-07-20T04:35:06;19.70;50.80
30520;DHT22;17300;50.374;8.006;2023-07-20T04:37:33;19.60;50.90
30520;DHT22;17300;50.374;8.006;2023-07-20T04:40:00;19.70;51.00
30520;DHT22;17300;50.374;8.006;2023-07-20T04:42:28;19.70;51.00
30520;DHT22;17300;50.374;8.006;2023-07-20T04:44:55;19.70;51.10
30520;DHT22;17300;50.374;8.006;2023-07-20T04:47:21;19.60;51.20
30520;DHT22;17300;50.374;8.006;2023-07-20T04:49:48;19.70;51.30
30520;DHT22;17300;50.374;8.006;2023-07-20T04:52:15;19.70;51.30
30520;DHT22;17300;50.374;8.006;2023-07-20T04:54:41;19.80;51.40
30520;DHT22;17300;50.374;8.006;2023-07-20T04:57:10;19.80;51.40
30520;DHT22;17300;50.374;8.006;2023-07-20T04:59:39;19.90;51.50
30520;DHT22;17300;50.374;8.006;2023-07-20T05:02:05;20.00;51.40
30520;DHT22;17300;50.374;8.006;2023-07-20T05:04:32;20.10;51.30
30520;DHT22;17300;50.374;8.006;2023-07-20T05:06:59;20.20;51.50
30520;DHT22;17300;50.374;8.006;2023-07-20T05:09:26;20.30;51.40
30520;DHT22;17300;50.374;8.006;2023-07-20T05:11:52;20.40;51.40
30520;DHT22;17300;50.374;8.006;2023-07-20T05:14:19;20.50;51.40
30520;DHT22;17300;50.374;8.006;2023-07-20T05:16:47;20.60;51.40
30520;DHT22;17300;50.374;8.006;2023-07-20T05:19:13;20.70;51.30
30520;DHT22;17300;50.374;8.006;2023-07-20T05:21:40;20.80;51.10
30520;DHT22;17300;50.374;8.006;2023-07-20T05:24:07;20.90;51.00
30520;DHT22;17300;50.374;8.006;2023-07-20T05:26:34;21.00;51.00
30520;DHT22;17300;50.374;8.006;2023-07-20T05:29:00;21.20;51.80
30520;DHT22;17300;50.374;8.006;2023-07-20T05:31:27;21.40;52.90
30520;DHT22;17300;50.374;8.006;2023-07-20T05:33:57;21.80;53.60
30520;DHT22;17300;50.374;8.006;2023-07-20T05:36:24;22.20;53.30
30520;DHT22;17300;50.374;8.006;2023-07-20T05:38:51;22.60;52.60
30520;DHT22;17300;50.374;8.006;2023-07-20T05:41:18;22.90;51.70
30520;DHT22;17300;50.374;8.006;2023-07-20T05:43:44;23.20;50.90
30520;DHT22;17300;50.374;8.006;2023-07-20T05:46:11;23.40;50.10
30520;DHT22;17300;50.374;8.006;2023-07-20T05:48:38;23.50;49.50
30520;DHT22;17300;50.374;8.006;2023-07-20T05:51:06;23.60;49.10
30520;DHT22;17300;50.374;8.006;2023-07-20T05:53:33;23.60;48.80
30520;DHT22;17300;50.374;8.006;2023-07-20T05:55:59;23.70;48.60
30520;DHT22;17300;50.374;8.006;2023-07-20T05:58:26;23.70;48.40
30520;DHT22;17300;50.374;8.006;2023-07-20T06:00:53;23.70;48.30
30520;DHT22;17300;50.374;8.006;2023-07-20T06:03:20;23.70;48.20
30520;DHT22;17300;50.374;8.006;2023-07-20T06:05:47;23.70;48.40
30520;DHT22;17300;50.374;8.006;2023-07-20T06:08:15;23.70;48.40
30520;DHT22;17300;50.374;8.006;2023-07-20T06:10:42;23.70;48.20
30520;DHT22;17300;50.374;8.006;2023-07-20T06:13:08;23.80;48.20
30520;DHT22;17300;50.374;8.006;2023-07-20T06:15:35;23.80;48.20
30520;DHT22;17300;50.374;8.006;2023-07-20T06:18:02;23.80;48.10
30520;DHT22;17300;50.374;8.006;2023-07-20T06:20:29;23.80;47.90
30520;DHT22;17300;50.374;8.006;2023-07-20T06:22:56;23.80;47.70
30520;DHT22;17300;50.374;8.006;2023-07-20T06:25:24;23.80;47.70
30520;DHT22;17300;50.374;8.006;2023-07-20T06:27:50;23.80;47.70
30520;DHT22;17300;50.374;8.006;2023-07-20T06:30:17;23.90;47.80
30520;DHT22;17300;50.374;8.006;2023-07-20T06:32:44;23.90;47.80
30520;DHT22;17300;50.374;8.006;2023-07-20T06:35:11;23.90;47.80
30520;DHT22;17300;50.374;8.006;2023-07-20T06:37:38;24.00;47.70
30520;DHT22;17300;50.374;8.006;2023-07-20T06:40:05;24.00;47.60
30520;DHT22;17300;50.374;8.006;2023-07-20T06:42:35;24.10;47.70
30520;DHT22;17300;50.374;8.006;2023-07-20T06:45:02;24.10;47.70
30520;DHT22;17300;50.374;8.006;2023-07-20T06:47:30;24.20;47.60
30520;DHT22;17300;50.374;8.006;2023-07-20T06:49:57;24.20;47.30
30520;DHT22;17300;50.374;8.006;2023-07-20T06:52:23;24.30;47.20
30520;DHT22;17300;50.374;8.006;2023-07-20T06:54:50;24.30;47.10
30520;DHT22;17300;50.374;8.006;2023-07-20T06:57:17;24.30;47.20
30520;DHT22;17300;50.374;8.006;2023-07-20T06:59:45;24.30;47.40
30520;DHT22;17300;50.374;8.006;2023-07-20T07:02:11;24.30;47.60
30520;DHT22;17300;50.374;8.006;2023-07-20T07:04:38;24.50;47.80
30520;DHT22;17300;50.374;8.006;2023-07-20T07:07:05;24.50;47.80
30520;DHT22;17300;50.374;8.006;2023-07-20T07:09:32;24.70;48.20
30520;DHT22;17300;50.374;8.006;2023-07-20T07:11:58;24.90;48.70
30520;DHT22;17300;50.374;8.006;2023-07-20T07:14:25;25.10;48.50
30520;DHT22;17300;50.374;8.006;2023-07-20T07:16:53;25.30;48.00
30520;DHT22;17300;50.374;8.006;2023-07-20T07:19:20;25.40;48.20
30520;DHT22;17300;50.374;8.006;2023-07-20T07:21:46;25.60;47.20
30520;DHT22;17300;50.374;8.006;2023-07-20T07:24:13;25.70;46.90
30520;DHT22;17300;50.374;8.006;2023-07-20T07:26:40;25.80;46.50
30520;DHT22;17300;50.374;8.006;2023-07-20T07:29:06;25.80;46.20
30520;DHT22;17300;50.374;8.006;2023-07-20T07:31:34;25.70;45.90
30520;DHT22;17300;50.374;8.006;2023-07-20T07:34:02;25.80;45.90
30520;DHT22;17300;50.374;8.006;2023-07-20T07:36:30;25.70;46.10
30520;DHT22;17300;50.374;8.006;2023-07-20T07:38:56;25.80;46.50
30520;DHT22;17300;50.374;8.006;2023-07-20T07:41:23;25.80;46.50
30520;DHT22;17300;50.374;8.006;2023-07-20T07:43:50;25.80;46.50
30520;DHT22;17300;50.374;8.006;2023-07-20T07:46:16;25.90;46.40
30520;DHT22;17300;50.374;8.006;2023-07-20T07:48:43;25.90;46.20
30520;DHT22;17300;50.374;8.006;2023-07-20T07:51:11;25.90;46.00
30520;DHT22;17300;50.374;8.006;2023-07-20T07:53:38;26.00;45.80
30520;DHT22;17300;50.374;8.006;2023-07-20T07:56:07;26.00;46.00
30520;DHT22;17300;50.374;8.006;2023-07-20T07:58:33;26.20;47.70
30520;DHT22;17300;50.374;8.006;2023-07-20T08:01:00;26.50;49.30
30520;DHT22;17300;50.374;8.006;2023-07-20T08:03:27;26.90;48.10
30520;DHT22;17300;50.374;8.006;2023-07-20T08:05:54;27.30;47.00
30520;DHT22;17300;50.374;8.006;2023-07-20T08:08:23;27.60;46.10
30520;DHT22;17300;50.374;8.006;2023-07-20T08:10:52;27.80;45.30
30520;DHT22;17300;50.374;8.006;2023-07-20T08:13:19;27.90;44.70
30520;DHT22;17300;50.374;8.006;2023-07-20T08:15:49;27.90;43.90
30520;DHT22;17300;50.374;8.006;2023-07-20T08:18:16;27.80;43.30
30520;DHT22;17300;50.374;8.006;2023-07-20T08:20:43;27.80;42.80
30520;DHT22;17300;50.374;8.006;2023-07-20T08:23:10;27.60;42.70
30520;DHT22;17300;50.374;8.006;2023-07-20T08:25:38;27.60;43.70
30520;DHT22;17300;50.374;8.006;2023-07-20T08:28:09;27.70;46.20
30520;DHT22;17300;50.374;8.006;2023-07-20T08:30:40;28.10;47.00
30520;DHT22;17300;50.374;8.006;2023-07-20T08:33:07;29.00;42.30
30520;DHT22;17300;50.374;8.006;2023-07-20T08:35:33;29.20;43.70
30520;DHT22;17300;50.374;8.006;2023-07-20T08:38:01;29.60;43.40
30520;DHT22;17300;50.374;8.006;2023-07-20T08:40:30;29.90;42.50
30520;DHT22;17300;50.374;8.006;2023-07-20T08:42:58;30.10;41.40
30520;DHT22;17300;50.374;8.006;2023-07-20T08:45:26;30.10;40.30
30520;DHT22;17300;50.374;8.006;2023-07-20T08:47:53;30.10;39.70
30520;DHT22;17300;50.374;8.006;2023-07-20T08:50:22;30.00;39.40
30520;DHT22;17300;50.374;8.006;2023-07-20T08:52:52;29.80;39.50
30520;DHT22;17300;50.374;8.006;2023-07-20T08:55:19;29.60;39.10
30520;DHT22;17300;50.374;8.006;2023-07-20T08:57:48;29.50;39.70
30520;DHT22;17300;50.374;8.006;2023-07-20T09:00:19;29.50;41.30
30520;DHT22;17300;50.374;8.006;2023-07-20T09:02:48;29.70;41.80
30520;DHT22;17300;50.374;8.006;2023-07-20T09:05:16;29.90;41.10
30520;DHT22;17300;50.374;8.006;2023-07-20T09:07:42;30.40;41.30
30520;DHT22;17300;50.374;8.006;2023-07-20T09:10:09;30.90;42.20
30520;DHT22;17300;50.374;8.006;2023-07-20T09:12:38;31.70;43.10
30520;DHT22;17300;50.374;8.006;2023-07-20T09:15:06;32.70;43.00
30520;DHT22;17300;50.374;8.006;2023-07-20T09:17:34;33.80;42.20
30520;DHT22;17300;50.374;8.006;2023-07-20T09:20:02;34.90;40.50
30520;DHT22;17300;50.374;8.006;2023-07-20T09:22:31;35.90;39.00
30520;DHT22;17300;50.374;8.006;2023-07-20T09:24:58;36.60;36.50
30520;DHT22;17300;50.374;8.006;2023-07-20T09:27:34;37.10;33.60
30520;DHT22;17300;50.374;8.006;2023-07-20T09:30:04;37.10;30.70
30520;DHT22;17300;50.374;8.006;2023-07-20T09:32:38;36.90;30.40
30520;DHT22;17300;50.374;8.006;2023-07-20T09:35:05;36.40;30.00
30520;DHT22;17300;50.374;8.006;2023-07-20T09:37:33;36.00;30.20
30520;DHT22;17300;50.374;8.006;2023-07-20T09:39:59;35.80;31.30
30520;DHT22;17300;50.374;8.006;2023-07-20T09:42:26;35.70;32.50
30520;DHT22;17300;50.374;8.006;2023-07-20T09:44:53;35.90;33.10
30520;DHT22;17300;50.374;8.006;2023-07-20T09:47:23;36.20;34.00
30520;DHT22;17300;50.374;8.006;2023-07-20T09:49:58;36.80;32.70
30520;DHT22;17300;50.374;8.006;2023-07-20T09:52:26;37.20;31.10
30520;DHT22;17300;50.374;8.006;2023-07-20T09:54:52;37.40;30.00
30520;DHT22;17300;50.374;8.006;2023-07-20T09:57:21;37.50;29.40
30520;DHT22;17300;50.374;8.006;2023-07-20T09:59:48;37.60;29.80
30520;DHT22;17300;50.374;8.006;2023-07-20T10:02:20;37.70;29.90
30520;DHT22;17300;50.374;8.006;2023-07-20T10:04:49;38.00;29.80
30520;DHT22;17300;50.374;8.006;2023-07-20T10:07:19;38.40;30.30
30520;DHT22;17300;50.374;8.006;2023-07-20T10:09:51;39.00;30.50
30520;DHT22;17300;50.374;8.006;2023-07-20T10:12:20;39.70;29.80
30520;DHT22;17300;50.374;8.006;2023-07-20T10:14:54;40.40;29.60
30520;DHT22;17300;50.374;8.006;2023-07-20T10:17:25;41.20;28.90
30520;DHT22;17300;50.374;8.006;2023-07-20T10:19:55;41.90;28.50
30520;DHT22;17300;50.374;8.006;2023-07-20T10:22:26;42.60;27.70
30520;DHT22;17300;50.374;8.006;2023-07-20T10:24:54;43.30;27.10
30520;DHT22;17300;50.374;8.006;2023-07-20T10:27:24;43.90;26.60
30520;DHT22;17300;50.374;8.006;2023-07-20T10:29:51;44.20;25.30
30520;DHT22;17300;50.374;8.006;2023-07-20T10:32:19;44.30;24.50
30520;DHT22;17300;50.374;8.006;2023-07-20T10:34:50;44.00;23.60
30520;DHT22;17300;50.374;8.006;2023-07-20T10:37:49;43.60;23.00
30520;DHT22;17300;50.374;8.006;2023-07-20T10:40:30;42.80;23.20
30520;DHT22;17300;50.374;8.006;2023-07-20T10:42:59;42.10;23.30
30520;DHT22;17300;50.374;8.006;2023-07-20T10:45:47;41.40;23.70
30520;DHT22;17300;50.374;8.006;2023-07-20T10:48:15;40.80;24.10
30520;DHT22;17300;50.374;8.006;2023-07-20T10:50:42;40.50;24.80
30520;DHT22;17300;50.374;8.006;2023-07-20T10:53:15;40.20;24.90
30520;DHT22;17300;50.374;8.006;2023-07-20T10:55:42;39.90;24.30
30520;DHT22;17300;50.374;8.006;2023-07-20T10:58:12;39.60;24.20
30520;DHT22;17300;50.374;8.006;2023-07-20T11:00:57;39.10;24.20
30520;DHT22;17300;50.374;8.006;2023-07-20T11:03:32;38.60;24.50
30520;DHT22;17300;50.374;8.006;2023-07-20T11:05:59;38.20;24.90
30520;DHT22;17300;50.374;8.006;2023-07-20T11:08:42;37.70;24.90
30520;DHT22;17300;50.374;8.006;2023-07-20T11:11:22;37.30;25.30
30520;DHT22;17300;50.374;8.006;2023-07-20T11:13:57;37.10;25.90
30520;DHT22;17300;50.374;8.006;2023-07-20T11:16:40;36.80;25.50
30520;DHT22;17300;50.374;8.006;2023-07-20T11:19:14;36.60;26.00
30520;DHT22;17300;50.374;8.006;2023-07-20T11:21:43;36.50;26.20
30520;DHT22;17300;50.374;8.006;2023-07-20T11:24:11;36.40;26.50
30520;DHT22;17300;50.374;8.006;2023-07-20T11:26:46;36.30;26.40
30520;DHT22;17300;50.374;8.006;2023-07-20T11:29:15;36.20;26.40
30520;DHT22;17300;50.374;8.006;2023-07-20T11:31:43;36.20;26.10
30520;DHT22;17300;50.374;8.006;2023-07-20T11:34:11;36.10;25.70
30520;DHT22;17300;50.374;8.006;2023-07-20T11:36:39;35.90;25.70
30520;DHT22;17300;50.374;8.006;2023-07-20T11:39:07;35.80;25.90
30520;DHT22;17300;50.374;8.006;2023-07-20T11:41:36;35.70;26.10
30520;DHT22;17300;50.374;8.006;2023-07-20T11:44:03;35.60;26.10
30520;DHT22;17300;50.374;8.006;2023-07-20T11:46:32;35.60;26.30
30520;DHT22;17300;50.374;8.006;2023-07-20T11:48:59;35.70;26.40
30520;DHT22;17300;50.374;8.006;2023-07-20T11:51:27;35.70;26.00
30520;DHT22;17300;50.374;8.006;2023-07-20T11:53:54;35.70;25.80
30520;DHT22;17300;50.374;8.006;2023-07-20T11:56:22;35.60;25.80
30520;DHT22;17300;50.374;8.006;2023-07-20T11:58:54;35.60;25.60
30520;DHT22;17300;50.374;8.006;2023-07-20T12:01:20;35.30;25.50
30520;DHT22;17300;50.374;8.006;2023-07-20T12:03:48;35.20;25.60
30520;DHT22;17300;50.374;8.006;2023-07-20T12:06:16;34.90;25.60
30520;DHT22;17300;50.374;8.006;2023-07-20T12:08:43;34.70;25.70
30520;DHT22;17300;50.374;8.006;2023-07-20T12:11:10;34.50;25.70
30520;DHT22;17300;50.374;8.006;2023-07-20T12:13:38;34.30;26.20
30520;DHT22;17300;50.374;8.006;2023-07-20T12:16:14;34.30;26.30
30520;DHT22;17300;50.374;8.006;2023-07-20T12:18:43;34.00;26.20
30520;DHT22;17300;50.374;8.006;2023-07-20T12:21:10;34.00;26.60
30520;DHT22;17300;50.374;8.006;2023-07-20T12:23:38;34.10;26.80
30520;DHT22;17300;50.374;8.006;2023-07-20T12:26:06;34.10;26.50
30520;DHT22;17300;50.374;8.006;2023-07-20T12:28:38;34.00;26.30
30520;DHT22;17300;50.374;8.006;2023-07-20T12:31:05;33.90;26.00
30520;DHT22;17300;50.374;8.006;2023-07-20T12:33:33;33.80;26.10
30520;DHT22;17300;50.374;8.006;2023-07-20T12:36:00;33.60;26.20
30520;DHT22;17300;50.374;8.006;2023-07-20T12:38:27;33.30;26.20
30520;DHT22;17300;50.374;8.006;2023-07-20T12:40:54;33.10;26.30
30520;DHT22;17300;50.374;8.006;2023-07-20T12:43:21;32.80;26.50
30520;DHT22;17300;50.374;8.006;2023-07-20T12:45:48;32.50;26.40
30520;DHT22;17300;50.374;8.006;2023-07-20T12:48:14;32.20;26.70
30520;DHT22;17300;50.374;8.006;2023-07-20T12:50:42;32.00;27.00
30520;DHT22;17300;50.374;8.006;2023-07-20T12:53:09;31.70;27.20
30520;DHT22;17300;50.374;8.006;2023-07-20T12:55:37;31.50;27.50
30520;DHT22;17300;50.374;8.006;2023-07-20T12:58:04;31.30;27.70
30520;DHT22;17300;50.374;8.006;2023-07-20T13:00:31;31.10;27.80
30520;DHT22;17300;50.374;8.006;2023-07-20T13:02:58;31.00;28.00
30520;DHT22;17300;50.374;8.006;2023-07-20T13:05:24;31.00;28.30
30520;DHT22;17300;50.374;8.006;2023-07-20T13:07:52;30.90;28.50
30520;DHT22;17300;50.374;8.006;2023-07-20T13:10:19;31.00;28.70
30520;DHT22;17300;50.374;8.006;2023-07-20T13:12:46;31.00;28.80
30520;DHT22;17300;50.374;8.006;2023-07-20T13:15:12;31.10;29.00
30520;DHT22;17300;50.374;8.006;2023-07-20T13:17:39;31.20;29.00
30520;DHT22;17300;50.374;8.006;2023-07-20T13:20:07;31.30;28.80
30520;DHT22;17300;50.374;8.006;2023-07-20T13:22:35;31.40;28.70
30520;DHT22;17300;50.374;8.006;2023-07-20T13:25:04;31.50;28.60
30520;DHT22;17300;50.374;8.006;2023-07-20T13:27:31;31.50;28.40
30520;DHT22;17300;50.374;8.006;2023-07-20T13:29:58;31.50;28.40
30520;DHT22;17300;50.374;8.006;2023-07-20T13:32:26;31.50;28.20
30520;DHT22;17300;50.374;8.006;2023-07-20T13:34:53;31.50;28.10
30520;DHT22;17300;50.374;8.006;2023-07-20T13:37:19;31.40;28.00
30520;DHT22;17300;50.374;8.006;2023-07-20T13:39:47;31.30;28.00
30520;DHT22;17300;50.374;8.006;2023-07-20T13:42:15;31.30;28.00
30520;DHT22;17300;50.374;8.006;2023-07-20T13:44:42;31.10;28.20
30520;DHT22;17300;50.374;8.006;2023-07-20T13:47:09;31.10;28.30
30520;DHT22;17300;50.374;8.006;2023-07-20T13:49:36;31.00;28.30
30520;DHT22;17300;50.374;8.006;2023-07-20T13:52:04;30.90;28.30
30520;DHT22;17300;50.374;8.006;2023-07-20T13:54:31;30.80;28.50
30520;DHT22;17300;50.374;8.006;2023-07-20T13:56:57;30.70;28.70
30520;DHT22;17300;50.374;8.006;2023-07-20T13:59:25;30.70;28.90
30520;DHT22;17300;50.374;8.006;2023-07-20T14:01:52;30.60;29.00
30520;DHT22;17300;50.374;8.006;2023-07-20T14:04:18;30.60;29.00
30520;DHT22;17300;50.374;8.006;2023-07-20T14:06:45;30.50;29.00
30520;DHT22;17300;50.374;8.006;2023-07-20T14:09:12;30.50;29.10
30520;DHT22;17300;50.374;8.006;2023-07-20T14:11:39;30.50;29.40
30520;DHT22;17300;50.374;8.006;2023-07-20T14:14:06;30.60;29.50
30520;DHT22;17300;50.374;8.006;2023-07-20T14:16:34;30.60;29.50
30520;DHT22;17300;50.374;8.006;2023-07-20T14:19:01;30.70;29.50
30520;DHT22;17300;50.374;8.006;2023-07-20T14:21:30;30.70;29.40
30520;DHT22;17300;50.374;8.006;2023-07-20T14:23:57;30.80;29.40
30520;DHT22;17300;50.374;8.006;2023-07-20T14:26:23;30.80;29.20
30520;DHT22;17300;50.374;8.006;2023-07-20T14:28:50;30.80;29.60
30520;DHT22;17300;50.374;8.006;2023-07-20T14:31:17;30.90;29.10
30520;DHT22;17300;50.374;8.006;2023-07-20T14:33:45;30.90;29.20
30520;DHT22;17300;50.374;8.006;2023-07-20T14:36:12;31.00;29.10
30520;DHT22;17300;50.374;8.006;2023-07-20T14:38:38;31.00;29.10
30520;DHT22;17300;50.374;8.006;2023-07-20T14:41:06;31.00;29.10
30520;DHT22;17300;50.374;8.006;2023-07-20T14:43:36;31.00;29.20
30520;DHT22;17300;50.374;8.006;2023-07-20T14:46:15;30.90;29.00
30520;DHT22;17300;50.374;8.006;2023-07-20T14:49:09;30.90;28.90
30520;DHT22;17300;50.374;8.006;2023-07-20T14:51:39;30.80;29.00
30520;DHT22;17300;50.374;8.006;2023-07-20T14:54:08;30.80;29.20
30520;DHT22;17300;50.374;8.006;2023-07-20T14:59:03;30.80;29.10
30520;DHT22;17300;50.374;8.006;2023-07-20T15:04:18;30.80;29.20
30520;DHT22;17300;50.374;8.006;2023-07-20T15:06:44;30.70;29.10
30520;DHT22;17300;50.374;8.006;2023-07-20T15:09:13;30.80;29.20
30520;DHT22;17300;50.374;8.006;2023-07-20T15:11:42;30.80;29.00
30520;DHT22;17300;50.374;8.006;2023-07-20T15:14:25;30.80;29.00
30520;DHT22;17300;50.374;8.006;2023-07-20T15:16:52;30.80;29.20
30520;DHT22;17300;50.374;8.006;2023-07-20T15:19:22;30.70;29.10
30520;DHT22;17300;50.374;8.006;2023-07-20T15:21:49;30.70;29.00
30520;DHT22;17300;50.374;8.006;2023-07-20T15:24:15;30.60;28.90
30520;DHT22;17300;50.374;8.006;2023-07-20T15:26:42;30.60;29.10
30520;DHT22;17300;50.374;8.006;2023-07-20T15:29:09;30.60;29.10
30520;DHT22;17300;50.374;8.006;2023-07-20T15:31:36;30.50;29.20
30520;DHT22;17300;50.374;8.006;2023-07-20T15:34:02;30.40;29.20
30520;DHT22;17300;50.374;8.006;2023-07-20T15:36:30;30.40;29.30
30520;DHT22;17300;50.374;8.006;2023-07-20T15:38:57;30.40;29.40
30520;DHT22;17300;50.374;8.006;2023-07-20T15:41:24;30.40;29.40